createdAt,value
2023-07-07T00:02:24.250Z,15.35
2023-07-07T00:04:51.918Z,15.35
2023-07-07T00:07:19.077Z,15.35
2023-07-07T00:09:45.848Z,15.36
2023-07-07T00:12:13.755Z,15.35
2023-07-07T00:14:40.653Z,15.37
2023-07-07T00:17:07.359Z,15.37
2023-07-07T00:19:34.891Z,15.39
2023-07-07T00:22:03.096Z,15.40
2023-07-07T00:24:29.964Z,15.39
2023-07-07T00:26:56.692Z,15.37
2023-07-07T00:29:23.753Z,15.34
2023-07-07T00:31:50.520Z,15.33
2023-07-07T00:34:17.242Z,15.33
2023-07-07T00:36:43.996Z,15.31
2023-07-07T00:39:10.958Z,15.32
2023-07-07T00:41:37.740Z,15.33
2023-07-07T00:44:07.504Z,15.33
2023-07-07T00:46:37.674Z,15.31
2023-07-07T00:49:09.144Z,15.27
2023-07-07T00:51:44.983Z,15.26
2023-07-07T00:54:17.692Z,15.27
2023-07-07T00:56:49.495Z,15.27
2023-07-07T00:59:21.506Z,15.26
2023-07-07T01:01:53.469Z,15.26
2023-07-07T01:04:22.507Z,15.24
2023-07-07T01:06:53.175Z,15.23
2023-07-07T01:09:19.980Z,15.19
2023-07-07T01:11:47.662Z,15.14
2023-07-07T01:14:21.741Z,15.10
2023-07-07T01:16:57.249Z,15.10
2023-07-07T01:19:33.345Z,15.09
2023-07-07T01:22:20.188Z,15.10
2023-07-07T01:24:52.661Z,15.12
2023-07-07T01:27:33.014Z,15.13
2023-07-07T01:30:26.485Z,15.12
2023-07-07T01:32:53.727Z,15.11
2023-07-07T01:35:22.138Z,15.08
2023-07-07T01:37:57.381Z,15.05
2023-07-07T01:40:50.812Z,15.02
2023-07-07T01:43:25.122Z,14.99
2023-07-07T01:46:12.294Z,14.97
2023-07-07T01:48:55.947Z,14.97
2023-07-07T01:51:28.849Z,14.96
2023-07-07T01:53:57.826Z,14.95
2023-07-07T01:56:29.125Z,14.93
2023-07-07T01:58:56.115Z,14.89
2023-07-07T02:01:22.887Z,14.87
2023-07-07T02:03:49.726Z,14.87
2023-07-07T02:06:16.429Z,14.84
2023-07-07T02:08:45.288Z,14.84
2023-07-07T02:11:12.559Z,14.85
2023-07-07T02:13:39.485Z,14.89
2023-07-07T02:16:07.801Z,14.93
2023-07-07T02:18:38.546Z,14.97
2023-07-07T02:21:06.187Z,15.00
2023-07-07T02:23:33.146Z,15.03
2023-07-07T02:25:59.993Z,15.05
2023-07-07T02:28:26.664Z,15.09
2023-07-07T02:30:54.764Z,15.12
2023-07-07T02:33:31.360Z,15.17
2023-07-07T02:36:05.967Z,15.20
2023-07-07T02:38:33.912Z,15.24
2023-07-07T02:41:00.919Z,15.28
2023-07-07T02:43:28.807Z,15.32
2023-07-07T02:45:56.685Z,15.36
2023-07-07T02:48:23.509Z,15.39
2023-07-07T02:50:57.573Z,15.42
2023-07-07T02:53:29.338Z,15.44
2023-07-07T02:55:56.451Z,15.43
2023-07-07T02:58:23.752Z,15.45
2023-07-07T03:00:51.712Z,15.47
2023-07-07T03:03:20.221Z,15.50
2023-07-07T03:05:47.324Z,15.55
2023-07-07T03:08:14.309Z,15.58
2023-07-07T03:10:42.429Z,15.60
2023-07-07T03:13:10.667Z,15.63
2023-07-07T03:15:40.491Z,15.65
2023-07-07T03:18:15.491Z,15.67
2023-07-07T03:20:48.559Z,15.68
2023-07-07T03:23:18.207Z,15.68
2023-07-07T03:25:45.086Z,15.70
2023-07-07T03:28:12.674Z,15.72
2023-07-07T03:30:41.642Z,15.75
2023-07-07T03:33:19.007Z,15.79
2023-07-07T03:35:47.252Z,15.82
2023-07-07T03:38:15.131Z,15.84
2023-07-07T03:40:49.654Z,15.86
2023-07-07T03:43:20.352Z,15.88
2023-07-07T03:45:47.300Z,15.90
2023-07-07T03:48:14.187Z,15.90
2023-07-07T03:50:41.024Z,15.93
2023-07-07T03:53:07.743Z,15.93
2023-07-07T03:55:35.127Z,15.95
2023-07-07T03:58:02.629Z,15.98
2023-07-07T04:00:29.299Z,16.01
2023-07-07T04:02:56.118Z,16.03
2023-07-07T04:05:23.085Z,16.04
2023-07-07T04:07:49.862Z,16.03
2023-07-07T04:10:17.184Z,16.02
2023-07-07T04:12:43.945Z,16.05
2023-07-07T04:15:11.003Z,16.07
2023-07-07T04:17:37.719Z,16.09
2023-07-07T04:20:06.122Z,16.10
2023-07-07T04:22:32.852Z,16.12
2023-07-07T04:25:14.201Z,16.13
2023-07-07T04:27:42.592Z,16.16
2023-07-07T04:30:10.587Z,16.20
2023-07-07T04:32:38.705Z,16.26
2023-07-07T04:35:06.205Z,16.34
2023-07-07T04:37:33.264Z,16.39
2023-07-07T04:40:00.058Z,16.44
2023-07-07T04:42:26.668Z,16.51
2023-07-07T04:44:53.627Z,16.58
2023-07-07T04:47:20.299Z,16.64
2023-07-07T04:49:47.028Z,16.68
2023-07-07T04:52:13.729Z,16.72
2023-07-07T04:54:40.486Z,16.77
2023-07-07T04:57:07.355Z,16.83
2023-07-07T04:59:34.118Z,16.88
2023-07-07T05:02:01.103Z,16.94
2023-07-07T05:04:28.097Z,17.00
2023-07-07T05:06:54.919Z,17.02
2023-07-07T05:09:21.585Z,17.07
2023-07-07T05:11:48.594Z,17.12
2023-07-07T05:14:15.437Z,17.21
2023-07-07T05:16:42.646Z,17.31
2023-07-07T05:19:09.751Z,17.43
2023-07-07T05:21:36.491Z,17.50
2023-07-07T05:24:03.699Z,17.58
2023-07-07T05:26:30.524Z,17.64
2023-07-07T05:29:00.687Z,17.73
2023-07-07T05:31:27.537Z,17.78
2023-07-07T05:33:54.436Z,17.86
2023-07-07T05:36:21.392Z,17.94
2023-07-07T05:38:48.183Z,18.05
2023-07-07T05:41:15.331Z,18.14
2023-07-07T05:43:42.401Z,18.26
2023-07-07T05:46:22.860Z,18.39
2023-07-07T05:48:49.980Z,18.52
2023-07-07T05:51:19.253Z,18.60
2023-07-07T05:53:47.748Z,18.71
2023-07-07T05:56:25.163Z,18.86
2023-07-07T05:58:55.304Z,19.00
2023-07-07T06:01:22.869Z,19.09
2023-07-07T06:03:49.740Z,19.17
2023-07-07T06:06:16.581Z,19.21
2023-07-07T06:08:43.467Z,19.19
2023-07-07T06:11:10.307Z,19.18
2023-07-07T06:13:37.192Z,19.23
2023-07-07T06:16:06.004Z,19.32
2023-07-07T06:18:32.886Z,19.43
2023-07-07T06:21:00.966Z,19.56
2023-07-07T06:23:29.602Z,19.73
2023-07-07T06:25:56.293Z,19.84
2023-07-07T06:28:23.267Z,19.89
2023-07-07T06:30:51.729Z,19.93
2023-07-07T06:33:21.116Z,19.96
2023-07-07T06:35:50.174Z,20.03
2023-07-07T06:38:17.707Z,20.13
2023-07-07T06:40:47.054Z,20.22
2023-07-07T06:43:18.427Z,20.24
2023-07-07T06:45:50.896Z,20.28
2023-07-07T06:48:17.778Z,20.34
2023-07-07T06:50:44.617Z,20.38
2023-07-07T06:53:11.504Z,20.46
2023-07-07T06:55:38.960Z,20.54
2023-07-07T06:58:05.744Z,20.65
2023-07-07T07:00:33.076Z,20.70
2023-07-07T07:02:59.869Z,20.80
2023-07-07T07:05:26.721Z,20.97
2023-07-07T07:07:53.590Z,21.15
2023-07-07T07:10:20.447Z,21.27
2023-07-07T07:12:48.843Z,21.51
2023-07-07T07:15:15.934Z,21.76
2023-07-07T07:17:42.753Z,21.85
2023-07-07T07:20:11.755Z,21.88
2023-07-07T07:22:38.486Z,21.82
2023-07-07T07:25:05.801Z,21.79
2023-07-07T07:27:32.497Z,21.96
2023-07-07T07:29:59.288Z,22.24
2023-07-07T07:32:25.984Z,22.50
2023-07-07T07:34:52.696Z,22.57
2023-07-07T07:37:19.588Z,22.64
2023-07-07T07:39:46.283Z,22.61
2023-07-07T07:42:12.956Z,22.62
2023-07-07T07:44:39.652Z,22.71
2023-07-07T07:47:06.752Z,22.72
2023-07-07T07:49:33.485Z,22.68
2023-07-07T07:52:00.554Z,22.81
2023-07-07T07:54:27.280Z,23.04
2023-07-07T07:56:55.963Z,23.28
2023-07-07T07:59:23.781Z,23.47
2023-07-07T08:01:52.026Z,23.62
2023-07-07T08:04:19.525Z,23.80
2023-07-07T08:06:46.325Z,24.09
2023-07-07T08:09:13.109Z,24.28
2023-07-07T08:11:43.058Z,24.38
2023-07-07T08:14:13.703Z,24.26
2023-07-07T08:16:40.619Z,24.13
2023-07-07T08:19:08.497Z,24.11
2023-07-07T08:21:36.469Z,24.34
2023-07-07T08:24:06.118Z,24.64
2023-07-07T08:26:34.313Z,24.84
2023-07-07T08:29:01.593Z,25.04
2023-07-07T08:31:28.574Z,25.14
2023-07-07T08:34:00.627Z,25.11
2023-07-07T08:36:29.871Z,25.26
2023-07-07T08:39:17.551Z,25.41
2023-07-07T08:41:53.383Z,25.63
2023-07-07T08:44:23.062Z,25.79
2023-07-07T08:46:58.898Z,26.02
2023-07-07T08:49:39.068Z,26.19
2023-07-07T08:52:27.776Z,26.35
2023-07-07T08:55:00.237Z,26.32
2023-07-07T08:57:31.484Z,26.47
2023-07-07T09:00:17.703Z,26.58
2023-07-07T09:02:47.440Z,26.47
2023-07-07T09:05:59.159Z,26.31
2023-07-07T09:09:00.067Z,26.45
2023-07-07T09:11:53.220Z,26.84
2023-07-07T09:14:20.486Z,27.15
2023-07-07T09:16:50.353Z,27.24
2023-07-07T09:19:25.493Z,27.31
2023-07-07T09:22:00.465Z,27.62
2023-07-07T09:24:53.404Z,27.95
2023-07-07T09:27:30.763Z,28.13
2023-07-07T09:30:11.179Z,28.42
2023-07-07T09:32:38.804Z,28.64
2023-07-07T09:35:14.272Z,28.74
2023-07-07T09:38:23.166Z,28.70
2023-07-07T09:41:00.713Z,28.78
2023-07-07T09:44:00.359Z,29.09
2023-07-07T09:46:47.576Z,29.39
2023-07-07T09:49:35.348Z,29.59
2023-07-07T09:52:36.767Z,29.62
2023-07-07T09:55:12.923Z,29.61
2023-07-07T09:57:46.122Z,29.45
2023-07-07T10:00:21.012Z,29.48
2023-07-07T10:02:51.772Z,29.43
2023-07-07T10:05:25.779Z,29.62
2023-07-07T10:07:52.987Z,29.81
2023-07-07T10:10:19.969Z,30.03
2023-07-07T10:12:46.896Z,30.14
2023-07-07T10:15:47.651Z,30.22
2023-07-07T10:18:28.392Z,30.26
2023-07-07T10:21:09.678Z,30.53
2023-07-07T10:23:39.345Z,30.80
2023-07-07T10:26:06.860Z,30.87
2023-07-07T10:28:34.174Z,31.01
2023-07-07T10:31:02.267Z,31.14
2023-07-07T10:33:29.251Z,31.18
2023-07-07T10:35:55.975Z,31.27
2023-07-07T10:38:24.154Z,31.28
2023-07-07T10:40:51.434Z,31.35
2023-07-07T10:43:19.655Z,31.53
2023-07-07T10:45:48.716Z,31.72
2023-07-07T10:48:16.566Z,31.81
2023-07-07T10:50:52.222Z,31.97
2023-07-07T10:53:23.279Z,32.01
2023-07-07T10:56:09.387Z,32.01
2023-07-07T10:58:54.397Z,32.01
2023-07-07T11:02:05.254Z,31.92
2023-07-07T11:04:46.131Z,31.95
2023-07-07T11:07:16.082Z,32.07
2023-07-07T11:10:12.146Z,32.11
2023-07-07T11:12:51.246Z,32.14
2023-07-07T11:15:37.377Z,32.21
2023-07-07T11:18:18.682Z,32.37
2023-07-07T11:21:06.475Z,32.25
2023-07-07T11:23:39.238Z,32.26
2023-07-07T11:26:27.696Z,32.32
2023-07-07T11:29:10.355Z,32.39
2023-07-07T11:32:06.702Z,32.36
2023-07-07T11:35:04.955Z,31.99
2023-07-07T11:37:45.849Z,31.72
2023-07-07T11:40:43.984Z,31.73
2023-07-07T11:43:16.563Z,31.57
2023-07-07T11:46:01.301Z,31.48
2023-07-07T11:48:54.547Z,31.52
2023-07-07T11:51:50.304Z,31.79
2023-07-07T11:54:35.912Z,31.72
2023-07-07T11:57:49.814Z,31.56
2023-07-07T12:00:25.813Z,31.42
2023-07-07T12:03:07.657Z,31.23
2023-07-07T12:05:37.821Z,30.94
2023-07-07T12:08:16.108Z,31.01
2023-07-07T12:10:51.242Z,31.10
2023-07-07T12:13:26.877Z,31.20
2023-07-07T12:16:21.472Z,30.94
2023-07-07T12:18:52.276Z,30.41
2023-07-07T12:21:34.531Z,29.88
2023-07-07T12:24:29.527Z,29.42
2023-07-07T12:27:09.216Z,28.87
2023-07-07T12:29:40.174Z,28.40
2023-07-07T12:32:08.132Z,28.07
2023-07-07T12:34:43.830Z,27.77
2023-07-07T12:37:22.501Z,27.35
2023-07-07T12:40:04.789Z,27.10
2023-07-07T12:42:33.342Z,26.81
2023-07-07T12:45:31.357Z,26.65
2023-07-07T12:48:19.371Z,26.43
2023-07-07T12:50:48.394Z,26.10
2023-07-07T12:53:22.200Z,25.84
2023-07-07T12:56:07.453Z,25.63
2023-07-07T12:58:37.034Z,25.43
2023-07-07T13:01:30.227Z,25.28
2023-07-07T13:04:08.275Z,25.13
2023-07-07T13:06:40.445Z,25.00
2023-07-07T13:09:13.317Z,24.84
2023-07-07T13:11:47.428Z,24.68
2023-07-07T13:14:26.556Z,24.50
2023-07-07T13:16:55.666Z,24.34
2023-07-07T13:19:23.365Z,24.22
2023-07-07T13:21:51.511Z,24.11
2023-07-07T13:24:21.343Z,24.02
2023-07-07T13:26:48.138Z,23.96
2023-07-07T13:29:14.891Z,23.90
2023-07-07T13:31:43.187Z,23.81
2023-07-07T13:34:18.464Z,23.75
2023-07-07T13:36:47.205Z,23.67
2023-07-07T13:39:15.298Z,23.61
2023-07-07T13:41:46.499Z,23.57
2023-07-07T13:44:18.857Z,23.51
2023-07-07T13:46:50.510Z,23.44
2023-07-07T13:49:19.905Z,23.41
2023-07-07T13:51:52.999Z,23.37
2023-07-07T13:54:22.542Z,23.33
2023-07-07T13:57:03.297Z,23.29
2023-07-07T13:59:30.953Z,23.26
2023-07-07T14:01:59.289Z,23.23
2023-07-07T14:04:37.329Z,23.16
2023-07-07T14:07:04.958Z,23.09
2023-07-07T14:09:42.263Z,23.01
2023-07-07T14:12:15.361Z,22.88
2023-07-07T14:14:43.454Z,22.76
2023-07-07T14:17:22.055Z,22.68
2023-07-07T14:20:04.093Z,22.61
2023-07-07T14:22:32.954Z,22.54
2023-07-07T14:24:59.917Z,22.49
2023-07-07T14:27:27.623Z,22.47
2023-07-07T14:29:58.479Z,22.44
2023-07-07T14:32:33.816Z,22.28
2023-07-07T14:35:00.710Z,22.16
2023-07-07T14:37:34.330Z,22.03
2023-07-07T14:40:31.006Z,21.94
2023-07-07T14:43:00.217Z,21.78
2023-07-07T14:45:33.426Z,21.63
2023-07-07T14:48:02.034Z,21.52
2023-07-07T14:50:30.079Z,21.33
2023-07-07T14:52:59.141Z,21.26
2023-07-07T14:55:29.525Z,21.18
2023-07-07T14:58:01.598Z,21.12
2023-07-07T15:00:31.392Z,21.05
2023-07-07T15:02:58.338Z,20.97
2023-07-07T15:05:34.110Z,20.93
2023-07-07T15:08:29.773Z,20.89
2023-07-07T15:11:12.343Z,20.77
2023-07-07T15:13:40.298Z,20.77
2023-07-07T15:16:07.128Z,20.77
2023-07-07T15:18:33.888Z,20.80
2023-07-07T15:21:00.681Z,20.82
2023-07-07T15:23:27.547Z,20.84
2023-07-07T15:25:54.815Z,20.86
2023-07-07T15:28:21.494Z,20.87
2023-07-07T15:30:48.663Z,20.87
2023-07-07T15:33:17.724Z,20.88
2023-07-07T15:35:45.128Z,20.87
2023-07-07T15:38:17.952Z,20.86
2023-07-07T15:40:44.782Z,20.87
2023-07-07T15:43:11.770Z,20.88
2023-07-07T15:45:48.669Z,20.89
2023-07-07T15:48:20.401Z,20.88
2023-07-07T15:50:47.152Z,20.86
2023-07-07T15:53:13.936Z,20.83
2023-07-07T15:55:40.682Z,20.83
2023-07-07T15:58:11.447Z,20.85
2023-07-07T16:00:42.079Z,20.85
2023-07-07T16:03:08.991Z,20.84
2023-07-07T16:05:36.344Z,20.83
2023-07-07T16:08:03.137Z,20.83
2023-07-07T16:10:29.895Z,20.83
2023-07-07T16:12:56.788Z,20.77
2023-07-07T16:15:26.162Z,20.75
2023-07-07T16:17:55.036Z,20.75
2023-07-07T16:20:26.898Z,20.77
2023-07-07T16:22:54.697Z,20.77
2023-07-07T16:25:21.885Z,20.77
2023-07-07T16:27:48.731Z,20.78
2023-07-07T16:30:36.214Z,20.82
2023-07-07T16:33:03.195Z,20.83
2023-07-07T16:35:30.052Z,20.83
2023-07-07T16:37:56.832Z,20.81
2023-07-07T16:40:44.385Z,20.78
2023-07-07T16:43:11.105Z,20.77
2023-07-07T16:45:37.920Z,20.75
2023-07-07T16:48:12.890Z,20.70
2023-07-07T16:50:39.676Z,20.69
2023-07-07T16:53:06.251Z,20.68
2023-07-07T16:55:34.212Z,20.66
2023-07-07T16:58:01.049Z,20.63
2023-07-07T17:00:32.794Z,20.62
2023-07-07T17:02:59.836Z,20.61
2023-07-07T17:05:26.752Z,20.60
2023-07-07T17:07:53.574Z,20.58
2023-07-07T17:10:29.459Z,20.55
2023-07-07T17:12:56.298Z,20.49
2023-07-07T17:15:23.025Z,20.42
2023-07-07T17:17:49.928Z,20.38
2023-07-07T17:20:23.930Z,20.37
2023-07-07T17:22:52.023Z,20.36
2023-07-07T17:25:20.063Z,20.35
2023-07-07T17:27:49.205Z,20.33
2023-07-07T17:30:26.271Z,20.31
2023-07-07T17:32:53.760Z,20.28
2023-07-07T17:35:23.376Z,20.27
2023-07-07T17:37:50.882Z,20.26
2023-07-07T17:40:39.696Z,20.21
2023-07-07T17:43:06.761Z,20.17
2023-07-07T17:45:33.743Z,20.15
2023-07-07T17:48:00.679Z,20.13
2023-07-07T17:50:41.214Z,20.11
2023-07-07T17:53:08.089Z,20.08
2023-07-07T17:55:37.221Z,20.07
2023-07-07T17:58:11.479Z,20.06
2023-07-07T18:00:39.972Z,20.04
2023-07-07T18:03:07.075Z,19.99
2023-07-07T18:05:34.284Z,19.95
2023-07-07T18:08:01.787Z,19.91
2023-07-07T18:10:32.037Z,19.87
2023-07-07T18:12:59.058Z,19.84
2023-07-07T18:15:27.881Z,19.80
2023-07-07T18:18:06.000Z,19.80
2023-07-07T18:21:34.801Z,19.79
2023-07-07T18:23:29.991Z,19.77
2023-07-07T18:25:57.325Z,19.73
2023-07-07T18:28:26.436Z,19.69
2023-07-07T18:30:57.156Z,19.67
2023-07-07T18:33:24.592Z,19.66
2023-07-07T18:35:51.409Z,19.66
2023-07-07T18:38:22.707Z,19.66
2023-07-07T18:40:49.821Z,19.66
2023-07-07T18:43:16.617Z,19.65
2023-07-07T18:45:43.509Z,19.64
2023-07-07T18:48:14.962Z,19.62
2023-07-07T18:50:42.098Z,19.61
2023-07-07T18:53:08.814Z,19.60
2023-07-07T18:55:35.513Z,19.60
2023-07-07T18:58:02.696Z,19.59
2023-07-07T19:00:36.881Z,19.59
2023-07-07T19:03:04.003Z,19.59
2023-07-07T19:05:32.170Z,19.59
2023-07-07T19:07:59.012Z,19.57
2023-07-07T19:10:38.484Z,19.55
2023-07-07T19:13:17.000Z,19.53
2023-07-07T19:15:46.671Z,19.51
2023-07-07T19:18:16.458Z,19.49
2023-07-07T19:20:43.698Z,19.48
2023-07-07T19:23:13.756Z,19.45
2023-07-07T19:25:40.790Z,19.46
2023-07-07T19:28:16.617Z,19.45
2023-07-07T19:30:43.795Z,19.43
2023-07-07T19:33:18.441Z,19.41
2023-07-07T19:35:46.321Z,19.39
2023-07-07T19:38:20.129Z,19.36
2023-07-07T19:40:51.022Z,19.35
2023-07-07T19:43:18.648Z,19.32
2023-07-07T19:45:50.248Z,19.31
2023-07-07T19:48:18.470Z,19.31
2023-07-07T19:50:50.626Z,19.31
2023-07-07T19:53:17.497Z,19.27
2023-07-07T19:55:44.955Z,19.25
2023-07-07T19:58:15.087Z,19.22
2023-07-07T20:00:42.245Z,19.21
2023-07-07T20:03:10.556Z,19.21
2023-07-07T20:05:38.639Z,19.20
2023-07-07T20:08:14.521Z,19.20
2023-07-07T20:10:44.053Z,19.20
2023-07-07T20:13:11.704Z,19.20
2023-07-07T20:15:39.756Z,19.20
2023-07-07T20:18:10.797Z,19.18
2023-07-07T20:20:37.467Z,19.17
2023-07-07T20:23:22.316Z,19.16
2023-07-07T20:25:49.452Z,19.15
2023-07-07T20:28:17.754Z,19.16
2023-07-07T20:30:44.475Z,19.15
2023-07-07T20:33:13.339Z,19.14
2023-07-07T20:35:40.465Z,19.12
2023-07-07T20:38:12.574Z,19.10
2023-07-07T20:40:43.381Z,19.07
2023-07-07T20:43:10.170Z,19.05
2023-07-07T20:45:37.681Z,19.03
2023-07-07T20:48:13.209Z,19.01
2023-07-07T20:50:49.804Z,18.98
2023-07-07T20:53:16.533Z,18.96
2023-07-07T20:55:43.312Z,18.96
2023-07-07T20:58:11.142Z,18.95
2023-07-07T21:00:42.639Z,18.95
2023-07-07T21:03:09.482Z,18.93
2023-07-07T21:05:36.669Z,18.93
2023-07-07T21:08:12.697Z,18.92
2023-07-07T21:10:40.120Z,18.91
2023-07-07T21:13:07.670Z,18.91
2023-07-07T21:15:34.457Z,18.90
2023-07-07T21:18:01.242Z,18.90
2023-07-07T21:20:36.959Z,18.90
2023-07-07T21:23:10.326Z,18.91
2023-07-07T21:25:37.363Z,18.89
2023-07-07T21:28:04.361Z,18.87
2023-07-07T21:30:31.223Z,18.85
2023-07-07T21:32:58.063Z,18.82
2023-07-07T21:35:25.069Z,18.81
2023-07-07T21:37:51.842Z,18.79
2023-07-07T21:40:21.938Z,18.77
2023-07-07T21:42:49.863Z,18.77
2023-07-07T21:45:19.690Z,18.77
2023-07-07T21:48:09.577Z,18.76
2023-07-07T21:50:36.319Z,18.76
2023-07-07T21:53:03.046Z,18.73
2023-07-07T21:55:29.759Z,18.70
2023-07-07T21:57:58.204Z,18.68
2023-07-07T22:00:27.743Z,18.69
2023-07-07T22:03:21.287Z,18.69
2023-07-07T22:05:50.996Z,18.70
2023-07-07T22:08:18.196Z,18.69
2023-07-07T22:10:52.494Z,18.68
2023-07-07T22:13:19.092Z,18.68
2023-07-07T22:15:46.176Z,18.64
2023-07-07T22:18:18.474Z,18.62
2023-07-07T22:20:54.071Z,18.60
2023-07-07T22:23:20.732Z,18.58
2023-07-07T22:25:47.665Z,18.56
2023-07-07T22:28:19.858Z,18.55
2023-07-07T22:30:53.093Z,18.54
2023-07-07T22:33:21.860Z,18.54
2023-07-07T22:35:50.048Z,18.54
2023-07-07T22:38:22.823Z,18.54
2023-07-07T22:40:53.220Z,18.53
2023-07-07T22:43:20.262Z,18.52
2023-07-07T22:45:59.094Z,18.50
2023-07-07T22:48:25.806Z,18.46
2023-07-07T22:50:52.765Z,18.44
2023-07-07T22:53:19.441Z,18.42
2023-07-07T22:55:47.726Z,18.38
2023-07-07T22:58:14.355Z,18.36
2023-07-07T23:00:41.758Z,18.36
2023-07-07T23:03:09.062Z,18.36
2023-07-07T23:05:39.478Z,18.35
2023-07-07T23:08:24.529Z,18.34
2023-07-07T23:10:51.892Z,18.30
2023-07-07T23:13:18.956Z,18.27
2023-07-07T23:15:46.025Z,18.25
2023-07-07T23:18:15.950Z,18.24
2023-07-07T23:20:42.920Z,18.24
2023-07-07T23:23:10.438Z,18.23
2023-07-07T23:25:37.708Z,18.23
2023-07-07T23:28:11.431Z,18.22
2023-07-07T23:31:06.312Z,18.23
2023-07-07T23:33:35.756Z,18.20
2023-07-07T23:36:12.701Z,18.17
2023-07-07T23:38:39.382Z,18.14
2023-07-07T23:41:10.108Z,18.13
2023-07-07T23:43:36.761Z,18.11
2023-07-07T23:46:08.997Z,18.11
2023-07-07T23:48:35.814Z,18.09
2023-07-07T23:51:02.938Z,18.05
2023-07-07T23:53:30.858Z,18.04
2023-07-07T23:55:57.760Z,18.03
2023-07-07T23:58:27.612Z,18.02
